Time;durP1;ratioP1;P1;durP2;ratioP2;P2;SDS_P1;SDS_P2;PMS_P1;PMS_P2;Temp;Humidity;BMP_temperature;BMP_pressure;BME280_temperature;BME280_humidity;BME280_pressure;Samples;Min_cycle;Max_cycle;Signal;HPM_P1;HPM_P2
2022/12/22 03:25:53;;;;;;;1.00;0.60;;;10.10;99.90;;;;;;5072745;28;20462;-74
2022/12/22 03:28:21;;;;;;;1.10;0.60;;;10.20;99.90;;;;;;5072472;28;20805;-74
2022/12/22 03:30:54;;;;;;;1.07;0.80;;;10.20;99.90;;;;;;5072311;28;20452;-74
2022/12/22 03:33:23;;;;;;;1.17;0.70;;;10.20;99.90;;;;;;5072034;28;20451;-74
2022/12/22 03:35:50;;;;;;;1.10;0.70;;;10.10;99.90;;;;;;5072632;28;20452;-75
2022/12/22 03:38:17;;;;;;;1.00;0.60;;;10.20;99.90;;;;;;5072283;28;20456;-74
2022/12/22 03:40:44;;;;;;;0.80;0.67;;;10.20;99.90;;;;;;5072302;28;20443;-74
2022/12/22 03:49:11;;;;;;;2.10;0.97;;;10.40;99.90;;;;;;5071959;28;20434;-75
2022/12/22 03:51:41;;;;;;;0.80;0.60;;;10.40;99.90;;;;;;5072052;28;20455;-74
2022/12/22 03:54:08;;;;;;;0.90;0.70;;;10.30;99.90;;;;;;5071887;28;20460;-74
2022/12/22 03:56:36;;;;;;;0.90;0.70;;;10.30;99.90;;;;;;5072244;28;20473;-75
2022/12/22 03:59:03;;;;;;;0.90;0.60;;;10.30;99.90;;;;;;5071699;28;20473;-74
2022/12/22 04:01:30;;;;;;;2.00;1.67;;;10.30;99.90;;;;;;5071494;28;20446;-74
2022/12/22 04:03:59;;;;;;;2.00;0.70;;;10.30;99.90;;;;;;5072377;28;20467;-75
2022/12/22 04:06:26;;;;;;;1.07;0.60;;;10.20;99.90;;;;;;5071761;28;20478;-75
2022/12/22 04:08:52;;;;;;;0.73;0.60;;;10.30;99.90;;;;;;5071944;28;20485;-75
2022/12/22 04:14:04;;;;;;;0.80;0.50;;;10.30;99.90;;;;;;5071235;28;20427;-75
2022/12/22 04:16:31;;;;;;;0.70;0.60;;;10.30;99.90;;;;;;5071518;28;20975;-74
2022/12/22 04:19:00;;;;;;;0.80;0.50;;;10.30;99.90;;;;;;5071849;28;20811;-73
2022/12/22 04:21:27;;;;;;;1.00;0.90;;;10.40;99.90;;;;;;5058025;28;20471;-75
2022/12/22 04:23:54;;;;;;;2.10;0.80;;;10.40;99.90;;;;;;5071812;28;20445;-74
2022/12/22 04:26:22;;;;;;;1.00;0.60;;;10.40;99.90;;;;;;5071230;28;20485;-74
2022/12/22 04:28:49;;;;;;;1.13;0.77;;;10.40;99.90;;;;;;5071591;28;20801;-74
2022/12/22 04:31:16;;;;;;;1.30;0.80;;;10.40;99.90;;;;;;5070770;28;20445;-74
2022/12/22 04:33:43;;;;;;;1.67;1.00;;;10.40;99.90;;;;;;5071036;28;20460;-74
2022/12/22 04:36:12;;;;;;;1.13;0.60;;;10.50;99.90;;;;;;5070920;28;20452;-74
2022/12/22 04:38:39;;;;;;;1.17;0.70;;;10.50;99.90;;;;;;5071357;28;20465;-74
2022/12/22 04:41:06;;;;;;;1.20;0.80;;;10.40;99.90;;;;;;5070472;28;20472;-74
2022/12/22 04:43:33;;;;;;;1.30;0.93;;;10.50;99.90;;;;;;5071216;28;20528;-74
2022/12/22 04:46:00;;;;;;;0.80;0.60;;;10.50;99.90;;;;;;5070479;28;20521;-74
2022/12/22 04:48:29;;;;;;;1.07;0.70;;;10.40;99.90;;;;;;5071293;28;20480;-73
2022/12/22 04:50:59;;;;;;;1.17;0.90;;;10.40;99.90;;;;;;5070919;28;20449;-74
2022/12/22 04:53:29;;;;;;;0.93;0.77;;;10.40;99.90;;;;;;5071157;28;20460;-73
2022/12/22 04:55:59;;;;;;;1.00;0.70;;;10.40;99.90;;;;;;5071044;28;20451;-73
2022/12/22 04:58:26;;;;;;;1.27;0.80;;;10.40;99.90;;;;;;5071170;28;20464;-73
2022/12/22 05:00:52;;;;;;;0.90;0.80;;;10.40;99.90;;;;;;5070641;28;20449;-73
2022/12/22 05:03:19;;;;;;;0.80;0.70;;;10.40;99.90;;;;;;5070736;28;20461;-73
2022/12/22 05:05:46;;;;;;;1.67;0.70;;;10.40;99.90;;;;;;5070649;28;20914;-73
2022/12/22 05:08:13;;;;;;;2.70;0.60;;;10.50;99.90;;;;;;5070031;28;20503;-73
2022/12/22 05:10:41;;;;;;;2.90;1.27;;;10.50;99.90;;;;;;5070531;28;20453;-74
2022/12/22 05:13:08;;;;;;;0.80;0.57;;;10.60;99.90;;;;;;5070253;28;20447;-74
2022/12/22 05:15:35;;;;;;;0.83;0.63;;;10.50;99.90;;;;;;5070716;28;20571;-74
2022/12/22 05:18:03;;;;;;;0.80;0.60;;;10.60;99.90;;;;;;5070192;28;20514;-74
2022/12/22 05:20:31;;;;;;;0.97;0.60;;;10.70;94.30;;;;;;5070499;28;20449;-74
2022/12/22 05:22:59;;;;;;;1.43;0.70;;;10.70;98.90;;;;;;5070671;28;20453;-74
2022/12/22 05:25:26;;;;;;;2.23;1.10;;;10.70;99.90;;;;;;5070634;28;20448;-74
2022/12/22 05:27:54;;;;;;;1.40;0.60;;;10.80;62.80;;;;;;5070615;28;20895;-74
2022/12/22 05:30:21;;;;;;;1.67;0.80;;;10.80;44.20;;;;;;5069800;28;20452;-74
2022/12/22 05:32:48;;;;;;;1.30;0.70;;;10.70;42.90;;;;;;5070081;28;20465;-74
2022/12/22 05:35:15;;;;;;;0.80;0.60;;;10.70;78.50;;;;;;5069833;28;20456;-74
2022/12/22 05:37:42;;;;;;;0.87;0.60;;;10.80;62.80;;;;;;5070440;28;20461;-73
2022/12/22 05:40:11;;;;;;;1.20;0.70;;;10.80;76.70;;;;;;5069679;28;20449;-74
2022/12/22 05:42:38;;;;;;;1.67;0.87;;;10.80;96.20;;;;;;5070582;28;20449;-74
2022/12/22 05:45:12;;;;;;;1.00;0.57;;;10.80;99.90;;;;;;5070046;28;20875;-74
2022/12/22 05:47:39;;;;;;;2.70;0.70;;;10.70;99.90;;;;;;5070399;28;20482;-75
2022/12/22 05:50:07;;;;;;;1.17;0.57;;;10.70;99.90;;;;;;5069657;28;20446;-74
2022/12/22 05:52:34;;;;;;;4.30;1.07;;;10.90;98.60;;;;;;5070276;28;20450;-74
2022/12/22 05:55:01;;;;;;;0.70;0.50;;;10.90;92.90;;;;;;5069684;28;20444;-74
2022/12/22 05:57:28;;;;;;;2.97;0.67;;;10.90;94.40;;;;;;5070303;28;20456;-74
2022/12/22 05:59:55;;;;;;;1.63;1.10;;;10.80;99.90;;;;;;5070440;28;20539;-74
2022/12/22 06:02:23;;;;;;;6.07;0.70;;;10.70;99.90;;;;;;5069722;28;20467;-74
2022/12/22 06:04:50;;;;;;;1.47;0.60;;;10.60;99.90;;;;;;5070175;28;20459;-74
2022/12/22 06:07:17;;;;;;;1.37;0.73;;;10.50;99.90;;;;;;5069477;28;20496;-74
2022/12/22 06:09:43;;;;;;;1.50;0.90;;;10.40;99.90;;;;;;5070684;28;20477;-74
2022/12/22 06:12:10;;;;;;;3.33;0.90;;;10.30;99.90;;;;;;5069677;28;20449;-74
2022/12/22 06:14:37;;;;;;;1.63;1.33;;;10.30;99.90;;;;;;5070515;28;20546;-74
2022/12/22 06:17:04;;;;;;;2.10;0.60;;;10.20;99.90;;;;;;5070110;28;20799;-73
2022/12/22 06:19:32;;;;;;;2.10;0.90;;;10.20;99.90;;;;;;5070521;28;20447;-75
2022/12/22 06:21:59;;;;;;;1.33;0.80;;;10.20;99.90;;;;;;5069648;28;20458;-74
2022/12/22 06:24:26;;;;;;;2.20;0.83;;;10.20;99.90;;;;;;5070287;28;20452;-74
2022/12/22 06:26:52;;;;;;;1.20;0.70;;;10.10;99.90;;;;;;5070362;28;20490;-74
2022/12/22 06:29:19;;;;;;;2.17;0.77;;;10.10;99.90;;;;;;5070000;28;20476;-75
2022/12/22 06:31:46;;;;;;;0.90;0.70;;;10.00;99.90;;;;;;5069938;28;20455;-75
2022/12/22 06:34:16;;;;;;;3.03;0.87;;;10.00;99.90;;;;;;5069636;28;20872;-75
2022/12/22 06:36:44;;;;;;;1.57;1.00;;;10.10;99.90;;;;;;5070062;28;20489;-75
2022/12/22 06:39:11;;;;;;;2.30;0.90;;;10.10;99.90;;;;;;5069625;28;20463;-75
2022/12/22 06:44:23;;;;;;;2.00;0.83;;;10.30;99.90;;;;;;5069783;28;20423;-75
2022/12/22 06:46:50;;;;;;;0.90;0.60;;;10.70;1.00;;;;;;5072888;28;20460;-75
2022/12/22 06:49:16;;;;;;;2.63;1.07;;;11.00;1.00;;;;;;5073132;28;20459;-74
2022/12/22 06:51:44;;;;;;;0.97;0.80;;;11.00;1.00;;;;;;5073199;28;20457;-74
2022/12/22 06:54:11;;;;;;;1.23;0.70;;;11.10;99.90;;;;;;5073289;28;20446;-74
2022/12/22 06:56:38;;;;;;;1.47;0.80;;;11.20;99.90;;;;;;5073756;28;20457;-74
2022/12/22 06:59:05;;;;;;;2.90;1.00;;;11.30;99.90;;;;;;5073058;28;21007;-74
2022/12/22 07:01:32;;;;;;;4.10;1.13;;;11.20;99.90;;;;;;5073253;28;20460;-74
2022/12/22 07:03:59;;;;;;;2.23;1.37;;;11.20;99.90;;;;;;5073196;28;20453;-73
2022/12/22 07:06:25;;;;;;;0.90;0.60;;;11.30;99.90;;;;;;5073634;28;20450;-75
2022/12/22 07:08:54;;;;;;;1.47;0.80;;;11.30;99.90;;;;;;5073442;28;20505;-75
2022/12/22 07:11:20;;;;;;;4.03;1.00;;;11.30;99.90;;;;;;5072481;28;20876;-75
2022/12/22 07:13:48;;;;;;;2.20;0.80;;;11.40;99.90;;;;;;5073477;28;20446;-75
2022/12/22 07:16:15;;;;;;;3.23;1.10;;;11.30;99.90;;;;;;5072433;28;20452;-75
2022/12/22 07:18:43;;;;;;;6.80;1.20;;;11.40;65.90;;;;;;5073053;28;20822;-74
2022/12/22 07:21:12;;;;;;;2.30;0.80;;;11.30;99.90;;;;;;5072124;28;20454;-75
2022/12/22 07:23:40;;;;;;;2.63;0.83;;;11.10;99.90;;;;;;5073317;28;20800;-74
2022/12/22 07:26:09;;;;;;;4.63;0.90;;;11.10;99.90;;;;;;5072648;28;20461;-74
2022/12/22 07:28:38;;;;;;;1.20;0.93;;;11.10;99.90;;;;;;5073082;28;20482;-74
2022/12/22 07:31:06;;;;;;;1.40;0.90;;;11.10;99.90;;;;;;5072092;28;20449;-74
2022/12/22 07:33:33;;;;;;;3.23;0.77;;;11.20;1.00;;;;;;5073156;28;20453;-74
2022/12/22 07:36:08;;;;;;;4.17;0.87;;;11.20;1.00;;;;;;5072415;28;20453;-74
2022/12/22 07:38:37;;;;;;;8.97;1.17;;;11.40;1.00;;;;;;5073180;28;20464;-74
2022/12/22 07:42:43;;;;;;;3.43;0.87;;;11.40;1.00;;;;;;5071714;28;20449;-74
2022/12/22 07:43:53;;;;;;;3.60;1.70;;;11.40;1.00;;;;;;5072435;28;20449;-75
2022/12/22 07:46:20;;;;;;;6.50;1.20;;;11.30;1.00;;;;;;5072409;28;20464;-74
2022/12/22 07:51:33;;;;;;;3.87;1.40;;;11.30;99.90;;;;;;5071924;28;20431;-74
2022/12/22 07:54:00;;;;;;;4.40;1.00;;;11.20;99.90;;;;;;5072351;28;20457;-74
2022/12/22 07:56:27;;;;;;;1.40;1.00;;;11.10;1.00;;;;;;5072638;28;20461;-74
2022/12/22 07:58:55;;;;;;;2.50;1.00;;;11.00;1.00;;;;;;5072498;28;20962;-75
2022/12/22 08:01:22;;;;;;;3.83;1.27;;;10.80;1.00;;;;;;5071428;28;20461;-75
2022/12/22 08:03:49;;;;;;;1.43;1.27;;;10.70;1.00;;;;;;5072428;28;20459;-74
2022/12/22 08:06:15;;;;;;;3.70;0.80;;;10.50;1.00;;;;;;5071782;28;20802;-74
2022/12/22 08:08:42;;;;;;;4.70;0.70;;;10.40;1.00;;;;;;5071960;28;20538;-74
2022/12/22 08:11:09;;;;;;;1.00;0.70;;;10.50;1.00;;;;;;5071363;28;20456;-75
2022/12/22 08:13:36;;;;;;;1.80;0.73;;;10.40;12.20;;;;;;5072504;28;20442;-74
2022/12/22 08:16:06;;;;;;;1.67;0.90;;;10.40;21.10;;;;;;5071656;28;20452;-74
2022/12/22 08:18:33;;;;;;;4.30;1.43;;;10.40;20.40;;;;;;5072095;28;20449;-74
2022/12/22 08:21:00;;;;;;;4.10;1.23;;;10.30;50.30;;;;;;5070682;28;20957;-74
2022/12/22 08:23:27;;;;;;;2.97;0.73;;;10.30;54.50;;;;;;5072167;28;20450;-75
2022/12/22 08:25:59;;;;;;;1.83;0.70;;;10.30;59.40;;;;;;5071802;28;20940;-74
2022/12/22 08:28:26;;;;;;;3.90;1.03;;;10.40;24.10;;;;;;5072259;28;20473;-74
2022/12/22 08:30:54;;;;;;;2.03;0.80;;;10.40;33.00;;;;;;5071140;28;20442;-75
2022/12/22 08:33:22;;;;;;;2.80;1.00;;;10.40;11.10;;;;;;5071212;28;20937;-74
2022/12/22 08:35:48;;;;;;;2.33;1.33;;;10.40;12.70;;;;;;5071663;28;20563;-74
2022/12/22 08:38:15;;;;;;;3.80;2.40;;;10.50;1.00;;;;;;5071170;28;20452;-74
2022/12/22 08:40:44;;;;;;;2.20;1.37;;;10.60;1.00;;;;;;5071472;28;20455;-74
2022/12/22 08:43:12;;;;;;;3.23;0.97;;;10.60;31.10;;;;;;5071501;28;20439;-74
2022/12/22 08:45:38;;;;;;;1.67;0.83;;;10.70;1.00;;;;;;5071910;28;20453;-75
2022/12/22 08:48:06;;;;;;;3.33;0.70;;;10.70;1.00;;;;;;5071191;28;20506;-74
2022/12/22 08:50:34;;;;;;;3.60;1.70;;;10.70;1.00;;;;;;5071394;28;20447;-75
2022/12/22 08:53:03;;;;;;;2.80;1.40;;;10.60;1.00;;;;;;5071087;28;20445;-74
2022/12/22 08:55:30;;;;;;;4.07;1.30;;;10.60;1.00;;;;;;5071344;28;20477;-75
2022/12/22 08:57:57;;;;;;;9.80;1.20;;;10.80;1.00;;;;;;5071879;28;20449;-75
2022/12/22 09:00:25;;;;;;;4.60;1.37;;;10.90;1.00;;;;;;5071165;28;20543;-74
2022/12/22 09:02:52;;;;;;;4.50;1.17;;;10.90;1.00;;;;;;5071516;28;20950;-74
2022/12/22 09:05:19;;;;;;;2.03;1.60;;;11.00;99.90;;;;;;5070971;28;20455;-75
2022/12/22 09:07:47;;;;;;;1.80;0.70;;;11.10;99.90;;;;;;5070269;28;20481;-75
2022/12/22 09:10:14;;;;;;;2.40;0.73;;;11.30;99.90;;;;;;5070145;28;20562;-75
2022/12/22 09:12:41;;;;;;;2.40;1.20;;;11.40;64.70;;;;;;5071129;28;20446;-74
2022/12/22 09:15:09;;;;;;;3.60;0.80;;;11.60;1.00;;;;;;5071797;28;20445;-74
2022/12/22 09:17:36;;;;;;;10.23;1.80;;;11.70;1.00;;;;;;5072040;28;20443;-75
2022/12/22 09:20:04;;;;;;;4.30;0.90;;;11.60;1.00;;;;;;5070823;28;20947;-75
2022/12/22 09:22:31;;;;;;;2.10;0.87;;;11.40;99.90;;;;;;5071501;28;20441;-77
2022/12/22 09:24:59;;;;;;;2.20;0.77;;;11.20;1.00;;;;;;5072918;28;20445;-78
2022/12/22 09:27:26;;;;;;;2.30;1.00;;;11.10;1.00;;;;;;5071764;28;20437;-79
2022/12/22 09:29:53;;;;;;;0.90;0.57;;;10.80;1.00;;;;;;5071732;28;20431;-79
2022/12/22 09:32:20;;;;;;;2.00;0.50;;;10.40;69.80;;;;;;5070948;28;20447;-80
2022/12/22 09:34:47;;;;;;;1.00;0.80;;;10.40;99.90;;;;;;5071156;28;20449;-80
2022/12/22 09:37:14;;;;;;;2.30;0.87;;;10.50;99.90;;;;;;5070511;28;20436;-80
2022/12/22 09:39:41;;;;;;;1.60;0.90;;;10.50;99.90;;;;;;5070771;28;20451;-80
2022/12/22 09:42:15;;;;;;;2.30;0.97;;;10.60;99.90;;;;;;5070620;28;20482;-80
2022/12/22 09:44:45;;;;;;;3.70;1.13;;;10.50;99.90;;;;;;5071262;28;20490;-80
2022/12/22 09:47:17;;;;;;;1.73;0.80;;;10.50;99.90;;;;;;5070470;28;20446;-80
2022/12/22 09:49:44;;;;;;;1.20;0.80;;;10.60;99.90;;;;;;5070600;28;20493;-80
2022/12/22 09:52:22;;;;;;;4.77;1.20;;;10.50;99.90;;;;;;5070029;28;20438;-80
2022/12/22 09:54:50;;;;;;;1.53;0.80;;;10.50;99.90;;;;;;5070920;28;20454;-80
2022/12/22 09:57:18;;;;;;;3.20;1.10;;;10.60;99.90;;;;;;5070433;28;20438;-80
2022/12/22 09:59:45;;;;;;;4.20;1.30;;;10.60;99.90;;;;;;5070379;28;20789;-81
2022/12/22 10:02:24;;;;;;;2.00;1.17;;;10.50;99.90;;;;;;5070554;28;20441;-80
2022/12/22 10:05:17;;;;;;;4.63;0.87;;;10.50;99.90;;;;;;5071020;28;20450;-80
2022/12/22 10:07:44;;;;;;;3.93;1.00;;;10.60;99.90;;;;;;5070603;28;20498;-80
2022/12/22 10:10:24;;;;;;;4.37;1.20;;;10.60;99.90;;;;;;5069438;28;20435;-79
2022/12/22 10:12:54;;;;;;;1.70;0.93;;;10.70;99.90;;;;;;5070699;28;20439;-79
2022/12/22 10:15:21;;;;;;;0.90;0.50;;;10.70;99.90;;;;;;5070147;28;20444;-78
2022/12/22 10:17:50;;;;;;;2.20;0.93;;;10.60;99.90;;;;;;5070613;28;20443;-78
2022/12/22 10:20:25;;;;;;;1.00;0.70;;;10.70;99.90;;;;;;5071659;28;20447;-77
2022/12/22 10:22:54;;;;;;;1.90;1.10;;;10.70;99.90;;;;;;5074230;28;20487;-78
2022/12/22 10:25:32;;;;;;;1.00;0.70;;;10.80;99.90;;;;;;5074011;28;20473;-77
2022/12/22 10:28:02;;;;;;;1.57;0.70;;;10.70;99.90;;;;;;5060497;28;20445;-72
2022/12/22 10:30:31;;;;;;;1.97;0.80;;;10.90;99.90;;;;;;5073999;28;20451;-77
2022/12/22 10:33:03;;;;;;;3.27;1.90;;;10.90;99.90;;;;;;5074223;28;20938;-71
2022/12/22 10:35:45;;;;;;;4.50;1.30;;;11.00;99.90;;;;;;5074205;28;20799;-77
2022/12/22 10:38:21;;;;;;;1.27;0.80;;;11.00;99.90;;;;;;5073612;28;20456;-78
2022/12/22 10:40:50;;;;;;;3.63;1.93;;;11.00;99.90;;;;;;5073536;28;20908;-77
2022/12/22 10:43:22;;;;;;;3.80;0.77;;;11.00;99.90;;;;;;5073536;28;20451;-77
2022/12/22 10:45:51;;;;;;;1.73;0.63;;;10.90;99.90;;;;;;5061037;28;20443;-78
2022/12/22 10:48:29;;;;;;;5.10;1.13;;;11.00;99.90;;;;;;5073369;28;20483;-78
2022/12/22 10:50:58;;;;;;;1.30;1.00;;;11.10;99.90;;;;;;5074051;28;20448;-78
2022/12/22 10:53:39;;;;;;;2.33;0.90;;;11.00;99.90;;;;;;5074000;28;20514;-79
2022/12/22 10:56:08;;;;;;;1.30;0.90;;;11.00;99.90;;;;;;5073161;28;20942;-78
2022/12/22 10:58:48;;;;;;;8.97;0.80;;;11.00;99.90;;;;;;5073521;28;20448;-78
2022/12/22 11:01:24;;;;;;;5.50;1.70;;;10.90;99.90;;;;;;5072831;28;20434;-78
2022/12/22 11:03:51;;;;;;;2.50;1.23;;;11.00;99.90;;;;;;5073805;28;20441;-78
2022/12/22 11:06:19;;;;;;;3.13;0.90;;;11.00;99.90;;;;;;5072875;28;20445;-79
2022/12/22 11:08:46;;;;;;;1.90;0.73;;;11.10;99.90;;;;;;5073047;28;20528;-79
2022/12/22 11:11:21;;;;;;;2.50;0.73;;;11.20;99.90;;;;;;5072248;28;20444;-78
2022/12/22 11:13:58;;;;;;;1.40;0.73;;;11.30;99.90;;;;;;5073571;28;20433;-79
2022/12/22 11:16:32;;;;;;;4.70;1.77;;;11.50;99.90;;;;;;5073704;28;20471;-78
2022/12/22 11:19:09;;;;;;;3.63;0.80;;;11.60;99.90;;;;;;5072832;28;20951;-72
2022/12/22 11:21:42;;;;;;;1.07;0.63;;;11.70;99.90;;;;;;5060560;28;20912;-77
2022/12/22 11:24:22;;;;;;;2.00;0.53;;;11.60;99.90;;;;;;5072874;28;20452;-77
2022/12/22 11:27:00;;;;;;;1.20;0.90;;;11.50;99.90;;;;;;5073360;28;20432;-77
2022/12/22 11:29:48;;;;;;;2.93;0.93;;;11.60;99.90;;;;;;5073119;28;20468;-76
2022/12/22 11:32:31;;;;;;;1.40;1.00;;;11.70;27.00;;;;;;5071955;28;20441;-77
2022/12/22 11:35:07;;;;;;;0.70;0.50;;;11.70;42.60;;;;;;5073534;28;20436;-78
2022/12/22 11:37:43;;;;;;;1.23;0.80;;;11.80;7.40;;;;;;5072770;28;20445;-77
2022/12/22 11:40:19;;;;;;;5.80;1.00;;;11.80;5.10;;;;;;5071914;28;20441;-78
2022/12/22 11:42:59;;;;;;;2.60;0.70;;;11.90;1.50;;;;;;5073279;28;20437;-78
2022/12/22 11:45:42;;;;;;;0.90;0.53;;;11.80;1.00;;;;;;5072926;28;20436;-77
2022/12/22 11:48:22;;;;;;;1.60;0.67;;;11.80;1.00;;;;;;5072439;28;20441;-77
2022/12/22 11:50:52;;;;;;;2.30;0.63;;;11.90;1.00;;;;;;5072489;28;20438;-76
2022/12/22 11:53:36;;;;;;;1.03;0.50;;;11.90;1.00;;;;;;5072045;28;20464;-77
2022/12/22 11:56:18;;;;;;;3.80;0.73;;;11.90;1.00;;;;;;5072215;28;20442;-77
2022/12/22 11:59:01;;;;;;;0.90;0.53;;;11.90;1.00;;;;;;5072745;28;20441;-77
2022/12/22 12:01:46;;;;;;;2.67;0.80;;;11.90;1.00;;;;;;5072017;28;20913;-77
2022/12/22 12:04:35;;;;;;;1.83;0.60;;;12.00;1.00;;;;;;5072117;28;20444;-77
2022/12/22 12:07:18;;;;;;;3.63;1.00;;;12.10;1.00;;;;;;5071872;28;20426;-75
2022/12/22 12:09:51;;;;;;;2.80;0.80;;;12.20;99.90;;;;;;5072235;28;20496;-77
2022/12/22 12:12:26;;;;;;;1.30;0.80;;;12.30;99.90;;;;;;5072346;28;20430;-77
2022/12/22 12:15:01;;;;;;;3.00;1.93;;;12.30;99.90;;;;;;5072638;28;20770;-77
2022/12/22 12:17:41;;;;;;;0.80;0.60;;;12.40;99.90;;;;;;5072765;28;20441;-75
2022/12/22 12:20:31;;;;;;;0.80;0.50;;;12.40;99.90;;;;;;5071610;28;20434;-77
2022/12/22 12:23:14;;;;;;;1.43;0.60;;;12.40;1.00;;;;;;5072455;28;20787;-76
2022/12/22 12:25:45;;;;;;;0.70;0.40;;;12.50;10.90;;;;;;5072347;28;20782;-77
2022/12/22 12:28:24;;;;;;;1.47;0.50;;;12.50;1.00;;;;;;5071615;28;20440;-78
2022/12/22 12:30:54;;;;;;;1.10;0.70;;;12.40;41.70;;;;;;5071554;28;20445;-77
2022/12/22 12:33:36;;;;;;;0.77;0.47;;;12.30;80.30;;;;;;5071848;28;20434;-77
2022/12/22 12:36:11;;;;;;;2.40;0.70;;;12.20;99.90;;;;;;5058513;28;20528;-77
2022/12/22 12:38:46;;;;;;;1.00;0.70;;;12.20;99.90;;;;;;5071930;28;20472;-77
2022/12/22 12:41:19;;;;;;;0.90;0.60;;;12.20;99.90;;;;;;5071265;28;20429;-78
2022/12/22 12:43:50;;;;;;;1.30;0.70;;;12.20;99.90;;;;;;5072116;28;20437;-77
2022/12/22 12:47:06;;;;;;;1.00;0.70;;;12.20;99.90;;;;;;5071566;28;20429;-77
2022/12/22 12:49:54;;;;;;;1.10;0.80;;;12.30;99.90;;;;;;5029184;28;20467;-78
2022/12/22 12:53:04;;;;;;;3.23;0.70;;;12.30;15.40;;;;;;5066845;28;20449;-78
2022/12/22 12:55:34;;;;;;;2.57;1.00;;;12.30;1.00;;;;;;5071543;28;20442;-76
2022/12/22 12:58:02;;;;;;;3.73;0.70;;;12.30;1.00;;;;;;5071241;28;20437;-76
2022/12/22 13:00:47;;;;;;;1.90;1.07;;;12.30;1.00;;;;;;5071348;28;20811;-76
2022/12/22 13:03:36;;;;;;;1.07;0.60;;;12.30;1.00;;;;;;5071219;28;20441;-77
2022/12/22 13:06:04;;;;;;;1.50;0.70;;;12.30;1.00;;;;;;5070851;28;20516;-77
2022/12/22 13:08:31;;;;;;;1.53;0.60;;;12.30;1.00;;;;;;5058439;28;20472;-77
2022/12/22 13:11:34;;;;;;;0.70;0.50;;;12.30;1.00;;;;;;5070977;28;20586;-72
2022/12/22 13:14:01;;;;;;;3.03;0.50;;;12.30;1.00;;;;;;5070740;28;20926;-77
2022/12/22 13:16:34;;;;;;;0.70;0.50;;;12.30;1.00;;;;;;5071259;28;20499;-76
2022/12/22 13:19:21;;;;;;;2.50;0.90;;;12.30;1.00;;;;;;5071109;28;20445;-76
2022/12/22 13:21:48;;;;;;;2.37;0.93;;;12.20;1.00;;;;;;5071524;28;20429;-78
2022/12/22 13:24:22;;;;;;;1.00;0.50;;;12.20;1.00;;;;;;5071008;28;20454;-77
2022/12/22 13:26:53;;;;;;;0.70;0.50;;;12.10;8.50;;;;;;5071572;28;20477;-77
2022/12/22 13:29:27;;;;;;;1.03;0.60;;;12.20;44.40;;;;;;5070501;28;20469;-78
2022/12/22 13:31:58;;;;;;;0.90;0.53;;;12.10;1.00;;;;;;5071808;28;20443;-78
2022/12/22 13:34:48;;;;;;;0.80;0.60;;;12.10;25.70;;;;;;5071766;28;20442;-77
2022/12/22 13:37:19;;;;;;;1.37;0.70;;;12.10;99.90;;;;;;5067949;28;20476;-77
2022/12/22 13:40:09;;;;;;;4.87;0.70;;;12.10;99.90;;;;;;5071017;28;20708;-76
2022/12/22 13:42:40;;;;;;;1.00;0.73;;;12.10;99.90;;;;;;5058375;28;20450;-76
2022/12/22 13:45:18;;;;;;;1.13;0.83;;;12.10;99.90;;;;;;5070783;28;20442;-76
2022/12/22 13:47:46;;;;;;;0.87;0.60;;;12.20;99.90;;;;;;5071492;28;20781;-76
2022/12/22 13:50:19;;;;;;;1.00;0.63;;;12.20;76.20;;;;;;5069850;28;20482;-76
2022/12/22 13:52:46;;;;;;;1.70;0.70;;;12.30;1.00;;;;;;5071081;28;20785;-76
2022/12/22 13:55:15;;;;;;;0.90;0.77;;;12.40;1.00;;;;;;5072395;28;20438;-75
2022/12/22 13:57:44;;;;;;;1.80;0.80;;;12.30;1.00;;;;;;5075487;28;20449;-76
2022/12/22 14:00:21;;;;;;;1.30;0.70;;;12.30;1.00;;;;;;5074217;28;20438;-76
2022/12/22 14:02:49;;;;;;;7.20;0.77;;;12.40;1.00;;;;;;5075331;28;20445;-76
2022/12/22 14:05:16;;;;;;;2.30;0.73;;;12.40;99.90;;;;;;5074490;28;20469;-77
2022/12/22 14:07:59;;;;;;;0.83;0.40;;;12.40;1.00;;;;;;5074711;28;20445;-76
2022/12/22 14:10:28;;;;;;;1.43;0.70;;;12.30;1.00;;;;;;5074910;28;20814;-77
2022/12/22 14:12:56;;;;;;;1.23;0.60;;;12.40;99.90;;;;;;5075076;28;20437;-76
2022/12/22 14:15:23;;;;;;;1.33;0.80;;;12.60;99.90;;;;;;5074810;28;20795;-77
2022/12/22 14:17:50;;;;;;;2.00;0.80;;;12.50;99.90;;;;;;5074837;28;20568;-77
2022/12/22 14:20:22;;;;;;;2.33;1.00;;;12.40;99.90;;;;;;5073881;28;20510;-77
2022/12/22 14:22:55;;;;;;;1.90;0.60;;;12.30;99.90;;;;;;5074783;28;20766;-76
2022/12/22 14:25:25;;;;;;;2.13;1.90;;;12.20;1.00;;;;;;5074322;28;20438;-76
2022/12/22 14:27:54;;;;;;;1.83;0.63;;;12.20;1.00;;;;;;5074660;28;20450;-78
2022/12/22 14:30:26;;;;;;;2.37;0.73;;;12.20;1.00;;;;;;5073620;28;20484;-76
2022/12/22 14:32:54;;;;;;;2.20;0.90;;;12.10;1.00;;;;;;5061345;28;20429;-77
2022/12/22 14:35:31;;;;;;;1.60;0.70;;;12.00;1.00;;;;;;5074113;28;20433;-76
2022/12/22 14:38:17;;;;;;;1.67;0.90;;;12.00;1.00;;;;;;5074440;28;20449;-76
2022/12/22 14:40:44;;;;;;;2.50;0.53;;;12.00;1.00;;;;;;5074162;28;20539;-76
2022/12/22 14:43:24;;;;;;;1.63;1.07;;;12.00;1.00;;;;;;5073611;28;20441;-77
2022/12/22 14:46:00;;;;;;;5.90;0.90;;;11.90;1.00;;;;;;5061061;28;20453;-76
2022/12/22 14:48:31;;;;;;;4.87;1.83;;;11.90;1.00;;;;;;5074485;28;20437;-76
2022/12/22 14:51:00;;;;;;;8.33;1.30;;;11.90;1.00;;;;;;5073664;28;20468;-71
2022/12/22 14:53:33;;;;;;;3.83;1.10;;;12.00;1.00;;;;;;5074402;28;20441;-77
2022/12/22 14:56:00;;;;;;;2.83;1.10;;;11.90;1.00;;;;;;5073878;28;20443;-76
2022/12/22 14:58:31;;;;;;;1.17;0.53;;;11.80;1.00;;;;;;5074324;28;20442;-77
2022/12/22 15:01:14;;;;;;;2.00;1.10;;;;;;;;;;5073713;28;20438;-76
2022/12/22 15:03:41;;;;;;;2.03;0.87;;;;;;;;;;5074036;28;20437;-75
2022/12/22 15:06:22;;;;;;;2.40;0.90;;;;;;;;;;5072287;28;20453;-75
2022/12/22 15:08:51;;;;;;;4.20;0.77;;;;;;;;;;5073599;28;20522;-75
2022/12/22 15:11:19;;;;;;;1.93;0.80;;;;;;;;;;5072464;28;20474;-75
2022/12/22 15:13:47;;;;;;;1.70;1.27;;;;;;;;;;5073948;28;20535;-76
2022/12/22 15:16:17;;;;;;;0.80;0.70;;;;;;;;;;5073162;28;20449;-77
2022/12/22 15:18:45;;;;;;;3.37;0.90;;;;;;;;;;5073667;28;20421;-77
2022/12/22 15:21:13;;;;;;;1.23;0.60;;;;;;;;;;5072405;28;20463;-76
2022/12/22 15:23:40;;;;;;;2.13;0.93;;;;;;;;;;5073651;28;20464;-77
2022/12/22 15:26:07;;;;;;;4.97;1.13;;;11.70;1.00;;;;;;5073097;28;20434;-77
2022/12/22 15:28:34;;;;;;;4.00;1.43;;;11.50;99.90;;;;;;5073348;28;20453;-77
2022/12/22 15:31:02;;;;;;;3.77;1.20;;;11.50;99.90;;;;;;5072634;28;20507;-76
2022/12/22 15:33:31;;;;;;;2.77;0.93;;;11.40;99.90;;;;;;5073857;28;20437;-75
2022/12/22 15:35:58;;;;;;;2.07;0.73;;;11.30;99.90;;;;;;5073626;28;20528;-77
2022/12/22 15:38:25;;;;;;;2.70;1.60;;;11.30;99.90;;;;;;5073431;28;20449;-77
2022/12/22 15:40:52;;;;;;;2.20;0.70;;;11.20;99.90;;;;;;5072448;28;20520;-77
2022/12/22 15:43:19;;;;;;;2.17;0.80;;;11.20;99.90;;;;;;5073164;28;20446;-77
2022/12/22 15:45:46;;;;;;;3.03;1.47;;;11.20;99.90;;;;;;5073128;28;20437;-77
2022/12/22 15:48:18;;;;;;;3.60;1.10;;;11.20;99.90;;;;;;5072339;28;20441;-77
2022/12/22 15:50:46;;;;;;;1.40;0.83;;;11.10;1.00;;;;;;5072696;28;20473;-77
2022/12/22 15:53:17;;;;;;;1.20;0.70;;;11.20;1.00;;;;;;5071940;28;20920;-76
2022/12/22 15:55:45;;;;;;;2.60;0.90;;;11.10;1.00;;;;;;5072994;28;20449;-77
2022/12/22 15:58:15;;;;;;;5.80;1.67;;;11.00;1.00;;;;;;5072140;28;20449;-77
2022/12/22 16:00:42;;;;;;;1.60;1.00;;;11.00;1.00;;;;;;5072274;28;20502;-77
2022/12/22 16:03:11;;;;;;;3.13;1.10;;;10.90;1.00;;;;;;5072150;28;20448;-77
2022/12/22 16:05:38;;;;;;;2.00;0.77;;;10.90;1.00;;;;;;5072600;28;20955;-77
2022/12/22 16:08:12;;;;;;;1.40;0.87;;;10.90;1.00;;;;;;5071452;28;20999;-76
2022/12/22 16:10:39;;;;;;;3.20;1.07;;;10.90;1.00;;;;;;5072252;28;20495;-77
2022/12/22 16:13:10;;;;;;;4.20;1.33;;;10.90;1.00;;;;;;5072068;28;20447;-76
2022/12/22 16:15:36;;;;;;;1.30;0.60;;;10.80;1.00;;;;;;5072502;28;20505;-76
2022/12/22 16:18:05;;;;;;;1.90;1.17;;;10.80;1.00;;;;;;5071253;28;20454;-77
2022/12/22 16:20:36;;;;;;;1.77;0.83;;;10.70;1.00;;;;;;5071960;28;20445;-77
2022/12/22 16:23:04;;;;;;;7.53;1.20;;;10.70;1.00;;;;;;5071689;28;20455;-77
2022/12/22 16:25:35;;;;;;;5.80;1.47;;;10.70;1.00;;;;;;5072375;28;20468;-76
2022/12/22 16:28:02;;;;;;;1.73;0.80;;;10.70;1.00;;;;;;5059136;28;20519;-77
2022/12/22 16:30:32;;;;;;;3.50;1.13;;;10.70;1.00;;;;;;5071740;28;20487;-76
2022/12/22 16:32:59;;;;;;;2.73;0.90;;;10.80;1.00;;;;;;5072025;28;20448;-72
2022/12/22 16:35:28;;;;;;;2.30;1.03;;;10.80;1.00;;;;;;5072170;28;20445;-76
2022/12/22 16:37:56;;;;;;;2.80;0.77;;;;;;;;;;5071998;28;20444;-77
2022/12/22 16:40:23;;;;;;;1.53;0.97;;;10.80;1.00;;;;;;5071219;28;20449;-77
2022/12/22 16:42:58;;;;;;;7.90;1.37;;;;;;;;;;5071874;28;20448;-76
2022/12/22 16:45:27;;;;;;;4.07;0.97;;;;;;;;;;5072415;28;20444;-76
2022/12/22 16:47:55;;;;;;;4.80;1.20;;;;;;;;;;5071849;28;20444;-76
2022/12/22 16:50:26;;;;;;;1.77;1.03;;;;;;;;;;5070550;28;20479;-76
2022/12/22 16:52:53;;;;;;;2.83;0.90;;;;;;;;;;5071649;28;20920;-76